createdAt,value
2019-04-04T00:02:37.225Z,3.93
2019-04-04T00:08:00.095Z,3.60
2019-04-04T00:13:24.700Z,4.10
2019-04-04T00:18:47.865Z,4.10
2019-04-04T00:24:10.229Z,3.87
2019-04-04T00:29:32.218Z,3.77
2019-04-04T00:34:53.748Z,3.37
2019-04-04T00:40:17.429Z,4.00
2019-04-04T00:45:38.519Z,3.63
2019-04-04T00:51:00.691Z,3.73
2019-04-04T00:56:21.970Z,3.70
2019-04-04T01:01:44.520Z,3.83
2019-04-04T01:07:06.172Z,3.30
2019-04-04T01:12:32.282Z,4.00
2019-04-04T01:17:53.531Z,4.03
2019-04-04T01:23:15.405Z,3.90
2019-04-04T01:28:37.097Z,4.30
2019-04-04T01:34:01.332Z,4.70
2019-04-04T01:39:22.977Z,4.33
2019-04-04T01:44:44.499Z,4.40
2019-04-04T01:50:07.547Z,4.07
2019-04-04T01:55:29.398Z,4.63
2019-04-04T02:00:52.211Z,4.70
2019-04-04T02:06:13.701Z,4.83
2019-04-04T02:11:37.450Z,5.00
2019-04-04T02:16:59.077Z,4.87
2019-04-04T02:22:23.514Z,4.60
2019-04-04T02:27:45.279Z,4.63
2019-04-04T02:33:09.059Z,6.80
2019-04-04T02:38:30.808Z,7.17
2019-04-04T02:43:52.416Z,5.40
2019-04-04T02:49:13.656Z,11.13
2019-04-04T02:54:35.194Z,10.23
2019-04-04T02:59:56.988Z,6.63
2019-04-04T03:05:19.986Z,7.57
2019-04-04T03:10:42.788Z,6.20
2019-04-04T03:16:06.784Z,7.50
2019-04-04T03:21:28.559Z,7.63
2019-04-04T03:26:52.772Z,8.23
2019-04-04T03:32:16.247Z,5.70
2019-04-04T03:37:40.539Z,6.53
2019-04-04T03:43:01.178Z,8.20
2019-04-04T03:48:23.014Z,8.80
2019-04-04T03:53:51.608Z,6.77
2019-04-04T03:59:14.681Z,7.23
2019-04-04T04:04:36.242Z,7.33
2019-04-04T04:09:59.718Z,6.53
2019-04-04T04:15:21.576Z,7.50
2019-04-04T04:20:47.032Z,7.43
2019-04-04T04:26:09.578Z,10.17
2019-04-04T04:31:32.053Z,7.63
2019-04-04T04:36:53.871Z,7.60
2019-04-04T04:42:15.458Z,5.80
2019-04-04T04:47:37.095Z,4.70
2019-04-04T04:53:00.779Z,5.47
2019-04-04T04:58:22.958Z,5.47
2019-04-04T05:03:44.188Z,4.43
2019-04-04T05:09:06.494Z,4.70
2019-04-04T05:14:29.778Z,3.70
2019-04-04T05:19:51.560Z,4.80
2019-04-04T05:25:14.320Z,5.73
2019-04-04T05:30:35.889Z,6.60
2019-04-04T05:35:58.283Z,4.90
2019-04-04T05:41:20.927Z,4.70
2019-04-04T05:46:42.774Z,4.30
2019-04-04T05:52:04.263Z,3.87
2019-04-04T05:57:26.009Z,4.67
2019-04-04T06:02:48.519Z,5.10
2019-04-04T06:08:10.136Z,5.17
2019-04-04T06:13:31.512Z,4.57
2019-04-04T06:18:56.401Z,4.53
2019-04-04T06:24:17.973Z,4.60
2019-04-04T06:29:39.928Z,4.72
2019-04-04T06:35:01.471Z,6.10
2019-04-04T06:40:28.125Z,6.33
2019-04-04T06:45:51.661Z,5.12
2019-04-04T06:51:14.352Z,5.35
2019-04-04T06:56:36.975Z,6.15
2019-04-04T07:01:58.659Z,5.22
2019-04-04T07:07:20.843Z,4.53
2019-04-04T07:12:42.988Z,4.67
2019-04-04T07:18:04.305Z,4.40
2019-04-04T07:23:28.523Z,5.12
2019-04-04T07:28:53.925Z,4.20
2019-04-04T07:34:15.655Z,3.80
2019-04-04T07:39:37.427Z,4.50
2019-04-04T07:44:58.887Z,4.30
2019-04-04T07:50:20.496Z,4.35
2019-04-04T07:55:42.271Z,4.00
2019-04-04T08:01:05.695Z,4.47
2019-04-04T08:06:27.603Z,4.40
2019-04-04T08:11:50.145Z,11.80
2019-04-04T08:17:11.949Z,12.03
2019-04-04T08:22:33.491Z,4.00
2019-04-04T08:27:54.743Z,4.30
2019-04-04T08:33:16.719Z,4.50
2019-04-04T08:38:39.289Z,4.60
2019-04-04T08:44:01.526Z,3.87
2019-04-04T08:49:24.016Z,5.17
2019-04-04T08:54:45.512Z,4.00
2019-04-04T09:00:09.868Z,3.98
2019-04-04T09:05:31.758Z,3.77
2019-04-04T09:10:53.434Z,4.25
2019-04-04T09:16:15.345Z,4.22
2019-04-04T09:21:37.353Z,3.50
2019-04-04T09:26:59.149Z,4.05
2019-04-04T09:32:20.889Z,4.50
2019-04-04T09:37:42.997Z,4.20
2019-04-04T09:43:04.994Z,4.50
2019-04-04T09:48:26.639Z,5.15
2019-04-04T09:53:53.181Z,4.78
2019-04-04T09:59:13.708Z,4.78
2019-04-04T10:04:36.420Z,4.53
2019-04-04T10:09:58.646Z,5.00
2019-04-04T10:15:20.200Z,4.72
2019-04-04T10:20:42.062Z,5.50
2019-04-04T10:26:03.833Z,5.47
2019-04-04T10:31:25.934Z,4.62
2019-04-04T10:36:47.596Z,4.40
2019-04-04T10:42:09.284Z,5.00
2019-04-04T10:47:30.658Z,5.00
2019-04-04T10:52:52.870Z,5.10
2019-04-04T10:58:15.687Z,5.20
2019-04-04T11:03:37.529Z,5.30
2019-04-04T11:08:59.014Z,5.60
2019-04-04T11:14:20.536Z,4.92
2019-04-04T11:19:43.549Z,4.40
2019-04-04T11:25:05.971Z,4.62
2019-04-04T11:30:27.727Z,6.30
2019-04-04T11:35:49.958Z,5.20
2019-04-04T11:41:11.915Z,5.53
2019-04-04T11:46:33.404Z,4.97
2019-04-04T11:51:55.335Z,6.00
2019-04-04T11:57:16.646Z,5.40
2019-04-04T12:02:39.874Z,5.47
2019-04-04T12:08:01.781Z,6.60
2019-04-04T12:13:23.426Z,4.60
2019-04-04T12:18:44.961Z,6.33
2019-04-04T12:24:06.719Z,5.97
2019-04-04T12:29:28.837Z,5.72
2019-04-04T12:34:51.010Z,10.15
2019-04-04T12:40:20.392Z,6.80
2019-04-04T12:45:36.846Z,6.22
2019-04-04T12:51:01.187Z,5.37
2019-04-04T12:56:22.499Z,5.12
2019-04-04T13:01:44.249Z,6.10
2019-04-04T13:07:05.685Z,6.10
2019-04-04T13:12:27.652Z,5.50
2019-04-04T13:17:49.603Z,5.50
2019-04-04T13:23:14.546Z,5.17
2019-04-04T13:28:36.148Z,5.33
2019-04-04T13:33:59.168Z,7.53
2019-04-04T13:39:22.080Z,6.17
2019-04-04T13:44:45.004Z,6.40
2019-04-04T13:50:08.733Z,5.75
2019-04-04T13:55:31.019Z,6.12
2019-04-04T14:00:53.352Z,6.37
2019-04-04T14:06:14.888Z,6.10
2019-04-04T14:11:40.908Z,6.40
2019-04-04T14:17:01.401Z,5.42
2019-04-04T14:22:23.445Z,4.75
2019-04-04T14:27:46.823Z,5.58
2019-04-04T14:33:08.678Z,7.05
2019-04-04T14:38:31.296Z,6.28
2019-04-04T14:43:53.987Z,4.87
2019-04-04T14:49:18.514Z,5.05
2019-04-04T14:54:40.367Z,7.35
2019-04-04T15:00:04.208Z,5.90
2019-04-04T15:05:26.192Z,6.75
2019-04-04T15:10:49.177Z,8.55
2019-04-04T15:16:16.184Z,10.18
2019-04-04T15:21:40.959Z,6.55
2019-04-04T15:27:03.032Z,9.58
2019-04-04T15:32:27.299Z,6.90
2019-04-04T15:37:51.499Z,6.20
2019-04-04T15:43:13.434Z,6.08
2019-04-04T15:48:35.430Z,7.15
2019-04-04T15:53:57.953Z,6.92
2019-04-04T15:59:20.163Z,6.70
2019-04-04T16:04:43.053Z,7.08
2019-04-04T16:10:05.223Z,7.53
2019-04-04T16:15:27.718Z,9.08
2019-04-04T16:20:51.666Z,10.68
2019-04-04T16:26:14.178Z,10.80
2019-04-04T16:31:36.475Z,9.53
2019-04-04T16:36:59.543Z,11.48
2019-04-04T16:42:21.869Z,11.45
2019-04-04T16:47:45.216Z,9.70
2019-04-04T16:53:08.041Z,10.30
2019-04-04T16:58:30.162Z,10.68
2019-04-04T17:04:01.568Z,11.30
2019-04-04T17:09:16.848Z,8.38
2019-04-04T17:14:39.808Z,10.65
2019-04-04T17:20:03.099Z,10.45
2019-04-04T17:25:26.192Z,10.10
2019-04-04T17:30:49.592Z,12.13
2019-04-04T17:36:11.904Z,13.18
2019-04-04T17:41:33.745Z,14.30
2019-04-04T17:46:56.308Z,10.90
2019-04-04T17:52:18.425Z,11.43
2019-04-04T17:57:40.197Z,10.75
2019-04-04T18:03:02.972Z,11.28
2019-04-04T18:08:26.161Z,12.50
2019-04-04T18:13:49.600Z,12.03
2019-04-04T18:19:12.058Z,12.58
2019-04-04T18:24:35.512Z,10.20
2019-04-04T18:29:58.463Z,10.48
2019-04-04T18:35:19.861Z,11.73
2019-04-04T18:40:43.810Z,13.00
2019-04-04T18:46:05.974Z,14.73
2019-04-04T18:51:28.996Z,14.63
2019-04-04T18:56:51.117Z,15.97
2019-04-04T19:02:14.984Z,12.10
2019-04-04T19:07:39.448Z,14.50
2019-04-04T19:13:05.534Z,15.83
2019-04-04T19:18:30.473Z,12.55
2019-04-04T19:23:52.984Z,12.77
2019-04-04T19:29:15.712Z,13.13
2019-04-04T19:34:37.287Z,14.23
2019-04-04T19:40:00.199Z,11.03
2019-04-04T19:45:21.624Z,11.07
2019-04-04T19:50:46.044Z,10.67
2019-04-04T19:56:08.891Z,11.67
2019-04-04T20:01:32.298Z,19.23
2019-04-04T20:06:54.466Z,11.90
2019-04-04T20:12:15.885Z,12.67
2019-04-04T20:17:37.738Z,13.57
2019-04-04T20:22:59.342Z,15.70
2019-04-04T20:28:23.518Z,16.47
2019-04-04T20:33:45.339Z,14.30
2019-04-04T20:39:07.264Z,11.00
2019-04-04T20:44:29.771Z,10.80
2019-04-04T20:49:52.216Z,20.87
2019-04-04T20:55:14.209Z,14.03
2019-04-04T21:00:37.069Z,11.30
2019-04-04T21:05:58.707Z,12.13
2019-04-04T21:11:20.623Z,11.03
2019-04-04T21:16:43.858Z,9.40
2019-04-04T21:22:06.775Z,10.10
2019-04-04T21:27:28.289Z,9.80
2019-04-04T21:32:50.308Z,12.80
2019-04-04T21:38:12.209Z,13.03
2019-04-04T21:43:34.471Z,10.40
2019-04-04T21:48:56.471Z,10.27
2019-04-04T21:54:18.290Z,9.23
2019-04-04T21:59:40.922Z,9.60
2019-04-04T22:05:02.801Z,12.10
2019-04-04T22:10:33.133Z,9.37
2019-04-04T22:15:57.553Z,10.10
2019-04-04T22:21:23.272Z,9.83
2019-04-04T22:27:05.976Z,9.47
2019-04-04T22:32:29.553Z,9.67
2019-04-04T22:37:52.482Z,9.90
2019-04-04T22:43:17.929Z,10.13
2019-04-04T22:48:39.674Z,9.23
2019-04-04T22:54:05.042Z,9.70
2019-04-04T22:59:36.091Z,10.20
2019-04-04T23:04:58.590Z,9.43
2019-04-04T23:10:23.444Z,9.67
2019-04-04T23:15:47.039Z,9.27
2019-04-04T23:21:11.700Z,9.33
2019-04-04T23:26:35.989Z,8.43
2019-04-04T23:32:00.349Z,8.63
2019-04-04T23:37:22.533Z,9.07
2019-04-04T23:42:46.126Z,9.77
2019-04-04T23:48:12.825Z,8.93
2019-04-04T23:53:35.810Z,9.57
2019-04-04T23:58:57.608Z,10.40
